sensor_id;sensor_type;location;lat;lon;timestamp;temperature;humidity
69546;SHT31;56766;52.260;20.746;2023-05-14T00:02:04;8.00;72.76
69546;SHT31;56766;52.260;20.746;2023-05-14T00:04:31;8.00;72.82
69546;SHT31;56766;52.260;20.746;2023-05-14T00:06:58;7.98;72.61
69546;SHT31;56766;52.260;20.746;2023-05-14T00:09:25;7.97;72.95
69546;SHT31;56766;52.260;20.746;2023-05-14T00:11:52;7.99;72.98
69546;SHT31;56766;52.260;20.746;2023-05-14T00:14:18;8.01;72.87
69546;SHT31;56766;52.260;20.746;2023-05-14T00:16:45;8.01;72.80
69546;SHT31;56766;52.260;20.746;2023-05-14T00:19:11;7.99;72.40
69546;SHT31;56766;52.260;20.746;2023-05-14T00:21:38;7.96;72.19
69546;SHT31;56766;52.260;20.746;2023-05-14T00:24:05;7.91;72.15
69546;SHT31;56766;52.260;20.746;2023-05-14T00:26:32;7.84;72.96
69546;SHT31;56766;52.260;20.746;2023-05-14T00:28:58;7.80;73.02
69546;SHT31;56766;52.260;20.746;2023-05-14T00:31:25;7.77;73.40
69546;SHT31;56766;52.260;20.746;2023-05-14T00:33:51;7.73;73.68
69546;SHT31;56766;52.260;20.746;2023-05-14T00:36:18;7.72;73.68
69546;SHT31;56766;52.260;20.746;2023-05-14T00:38:45;7.63;73.90
69546;SHT31;56766;52.260;20.746;2023-05-14T00:41:11;7.53;73.93
69546;SHT31;56766;52.260;20.746;2023-05-14T00:43:38;7.45;74.22
69546;SHT31;56766;52.260;20.746;2023-05-14T00:46:05;7.37;74.48
69546;SHT31;56766;52.260;20.746;2023-05-14T00:48:31;7.33;74.51
69546;SHT31;56766;52.260;20.746;2023-05-14T00:50:58;7.31;74.72
69546;SHT31;56766;52.260;20.746;2023-05-14T00:53:25;7.27;75.21
69546;SHT31;56766;52.260;20.746;2023-05-14T00:55:52;7.22;75.39
69546;SHT31;56766;52.260;20.746;2023-05-14T00:58:19;7.18;75.35
69546;SHT31;56766;52.260;20.746;2023-05-14T01:00:47;7.14;75.34
69546;SHT31;56766;52.260;20.746;2023-05-14T01:03:20;7.09;75.57
69546;SHT31;56766;52.260;20.746;2023-05-14T01:11:47;7.18;76.41
69546;SHT31;56766;52.260;20.746;2023-05-14T01:17:03;7.20;76.91
69546;SHT31;56766;52.260;20.746;2023-05-14T01:19:50;7.22;77.09
69546;SHT31;56766;52.260;20.746;2023-05-14T01:22:17;7.25;77.10
69546;SHT31;56766;52.260;20.746;2023-05-14T01:24:44;7.29;77.10
69546;SHT31;56766;52.260;20.746;2023-05-14T01:30:29;7.32;77.20
69546;SHT31;56766;52.260;20.746;2023-05-14T01:33:02;7.32;77.33
69546;SHT31;56766;52.260;20.746;2023-05-14T01:35:32;7.29;77.41
69546;SHT31;56766;52.260;20.746;2023-05-14T01:38:03;7.26;77.12
69546;SHT31;56766;52.260;20.746;2023-05-14T01:40:35;7.24;76.75
69546;SHT31;56766;52.260;20.746;2023-05-14T01:43:04;7.24;76.73
69546;SHT31;56766;52.260;20.746;2023-05-14T01:45:34;7.26;76.91
69546;SHT31;56766;52.260;20.746;2023-05-14T01:48:03;7.27;77.00
69546;SHT31;56766;52.260;20.746;2023-05-14T01:50:31;7.28;77.07
69546;SHT31;56766;52.260;20.746;2023-05-14T01:52:58;7.27;77.32
69546;SHT31;56766;52.260;20.746;2023-05-14T01:55:24;7.20;77.42
69546;SHT31;56766;52.260;20.746;2023-05-14T01:57:52;7.13;77.46
69546;SHT31;56766;52.260;20.746;2023-05-14T02:00:22;7.08;77.55
69546;SHT31;56766;52.260;20.746;2023-05-14T02:02:51;7.03;77.70
69546;SHT31;56766;52.260;20.746;2023-05-14T02:05:18;7.01;77.39
69546;SHT31;56766;52.260;20.746;2023-05-14T02:07:44;7.01;77.27
69546;SHT31;56766;52.260;20.746;2023-05-14T02:10:11;6.97;77.46
69546;SHT31;56766;52.260;20.746;2023-05-14T02:12:38;6.92;77.82
69546;SHT31;56766;52.260;20.746;2023-05-14T02:15:05;6.85;77.73
69546;SHT31;56766;52.260;20.746;2023-05-14T02:17:34;6.81;77.81
69546;SHT31;56766;52.260;20.746;2023-05-14T02:20:01;6.82;78.05
69546;SHT31;56766;52.260;20.746;2023-05-14T02:22:27;6.82;77.99
69546;SHT31;56766;52.260;20.746;2023-05-14T02:24:54;6.82;78.07
69546;SHT31;56766;52.260;20.746;2023-05-14T02:27:21;6.81;78.38
69546;SHT31;56766;52.260;20.746;2023-05-14T02:29:48;6.73;78.59
69546;SHT31;56766;52.260;20.746;2023-05-14T02:32:15;6.69;78.52
69546;SHT31;56766;52.260;20.746;2023-05-14T02:34:42;6.70;78.65
69546;SHT31;56766;52.260;20.746;2023-05-14T02:37:09;6.66;78.63
69546;SHT31;56766;52.260;20.746;2023-05-14T02:39:35;6.60;78.80
69546;SHT31;56766;52.260;20.746;2023-05-14T02:42:02;6.56;78.74
69546;SHT31;56766;52.260;20.746;2023-05-14T02:44:29;6.53;78.70
69546;SHT31;56766;52.260;20.746;2023-05-14T02:46:57;6.50;78.82
69546;SHT31;56766;52.260;20.746;2023-05-14T02:49:24;6.52;78.91
69546;SHT31;56766;52.260;20.746;2023-05-14T02:51:50;6.57;78.84
69546;SHT31;56766;52.260;20.746;2023-05-14T02:54:19;6.60;78.81
69546;SHT31;56766;52.260;20.746;2023-05-14T02:56:46;6.64;78.76
69546;SHT31;56766;52.260;20.746;2023-05-14T02:59:12;6.70;78.89
69546;SHT31;56766;52.260;20.746;2023-05-14T03:01:40;6.74;79.01
69546;SHT31;56766;52.260;20.746;2023-05-14T03:04:07;6.79;79.02
69546;SHT31;56766;52.260;20.746;2023-05-14T03:06:34;6.83;79.09
69546;SHT31;56766;52.260;20.746;2023-05-14T03:09:00;6.88;79.05
69546;SHT31;56766;52.260;20.746;2023-05-14T03:11:27;6.93;79.24
69546;SHT31;56766;52.260;20.746;2023-05-14T03:13:54;6.96;79.48
69546;SHT31;56766;52.260;20.746;2023-05-14T03:16:21;7.00;79.22
69546;SHT31;56766;52.260;20.746;2023-05-14T03:18:48;7.03;78.76
69546;SHT31;56766;52.260;20.746;2023-05-14T03:21:15;7.03;78.43
69546;SHT31;56766;52.260;20.746;2023-05-14T03:23:42;7.00;78.57
69546;SHT31;56766;52.260;20.746;2023-05-14T03:26:08;6.95;78.89
69546;SHT31;56766;52.260;20.746;2023-05-14T03:28:35;6.98;78.94
69546;SHT31;56766;52.260;20.746;2023-05-14T03:31:02;7.04;78.92
69546;SHT31;56766;52.260;20.746;2023-05-14T03:33:28;7.10;78.75
69546;SHT31;56766;52.260;20.746;2023-05-14T03:35:56;7.18;78.63
69546;SHT31;56766;52.260;20.746;2023-05-14T03:38:23;7.25;78.67
69546;SHT31;56766;52.260;20.746;2023-05-14T03:40:50;7.33;78.97
69546;SHT31;56766;52.260;20.746;2023-05-14T03:43:16;7.40;78.76
69546;SHT31;56766;52.260;20.746;2023-05-14T03:45:44;7.47;78.50
69546;SHT31;56766;52.260;20.746;2023-05-14T03:48:10;7.53;78.30
69546;SHT31;56766;52.260;20.746;2023-05-14T03:50:37;7.57;78.30
69546;SHT31;56766;52.260;20.746;2023-05-14T03:53:04;7.65;78.28
69546;SHT31;56766;52.260;20.746;2023-05-14T03:55:30;7.74;78.23
69546;SHT31;56766;52.260;20.746;2023-05-14T03:57:57;7.85;78.32
69546;SHT31;56766;52.260;20.746;2023-05-14T04:00:24;7.96;78.35
69546;SHT31;56766;52.260;20.746;2023-05-14T04:02:51;8.10;78.28
69546;SHT31;56766;52.260;20.746;2023-05-14T04:05:17;8.26;78.14
69546;SHT31;56766;52.260;20.746;2023-05-14T04:07:44;8.43;77.94
69546;SHT31;56766;52.260;20.746;2023-05-14T04:10:12;8.59;77.71
69546;SHT31;56766;52.260;20.746;2023-05-14T04:12:39;8.76;77.46
69546;SHT31;56766;52.260;20.746;2023-05-14T04:15:07;8.93;77.26
69546;SHT31;56766;52.260;20.746;2023-05-14T04:17:34;9.07;77.02
69546;SHT31;56766;52.260;20.746;2023-05-14T04:20:01;9.23;76.86
69546;SHT31;56766;52.260;20.746;2023-05-14T04:22:28;9.39;76.66
69546;SHT31;56766;52.260;20.746;2023-05-14T04:24:54;9.55;76.38
69546;SHT31;56766;52.260;20.746;2023-05-14T04:27:21;9.74;76.13
69546;SHT31;56766;52.260;20.746;2023-05-14T04:29:49;9.94;75.88
69546;SHT31;56766;52.260;20.746;2023-05-14T04:32:16;10.26;75.62
69546;SHT31;56766;52.260;20.746;2023-05-14T04:34:43;10.69;75.13
69546;SHT31;56766;52.260;20.746;2023-05-14T04:37:10;11.20;74.48
69546;SHT31;56766;52.260;20.746;2023-05-14T04:39:36;11.78;73.77
69546;SHT31;56766;52.260;20.746;2023-05-14T04:42:04;12.31;72.76
69546;SHT31;56766;52.260;20.746;2023-05-14T04:44:33;12.82;71.78
69546;SHT31;56766;52.260;20.746;2023-05-14T04:47:01;13.31;70.73
69546;SHT31;56766;52.260;20.746;2023-05-14T04:49:29;13.78;69.60
69546;SHT31;56766;52.260;20.746;2023-05-14T04:51:56;14.18;68.21
69546;SHT31;56766;52.260;20.746;2023-05-14T04:54:23;14.58;67.05
69546;SHT31;56766;52.260;20.746;2023-05-14T04:56:50;14.95;66.24
69546;SHT31;56766;52.260;20.746;2023-05-14T04:59:16;15.29;65.21
69546;SHT31;56766;52.260;20.746;2023-05-14T05:01:43;15.57;64.20
69546;SHT31;56766;52.260;20.746;2023-05-14T05:04:11;15.85;63.63
69546;SHT31;56766;52.260;20.746;2023-05-14T05:06:37;16.16;62.79
69546;SHT31;56766;52.260;20.746;2023-05-14T05:09:04;16.44;62.42
69546;SHT31;56766;52.260;20.746;2023-05-14T05:11:31;16.67;61.23
69546;SHT31;56766;52.260;20.746;2023-05-14T05:13:59;16.73;61.12
69546;SHT31;56766;52.260;20.746;2023-05-14T05:16:26;16.70;60.84
69546;SHT31;56766;52.260;20.746;2023-05-14T05:18:52;16.64;60.86
69546;SHT31;56766;52.260;20.746;2023-05-14T05:21:19;16.73;60.86
69546;SHT31;56766;52.260;20.746;2023-05-14T05:23:47;16.84;60.33
69546;SHT31;56766;52.260;20.746;2023-05-14T05:26:14;16.93;60.43
69546;SHT31;56766;52.260;20.746;2023-05-14T05:28:41;17.04;60.19
69546;SHT31;56766;52.260;20.746;2023-05-14T05:31:07;17.17;60.09
69546;SHT31;56766;52.260;20.746;2023-05-14T05:33:34;17.22;58.96
69546;SHT31;56766;52.260;20.746;2023-05-14T05:36:01;17.23;59.02
69546;SHT31;56766;52.260;20.746;2023-05-14T05:38:28;17.30;58.48
69546;SHT31;56766;52.260;20.746;2023-05-14T05:40:54;17.36;58.74
69546;SHT31;56766;52.260;20.746;2023-05-14T05:43:21;17.49;59.23
69546;SHT31;56766;52.260;20.746;2023-05-14T05:45:47;17.58;58.67
69546;SHT31;56766;52.260;20.746;2023-05-14T05:48:14;17.63;58.29
69546;SHT31;56766;52.260;20.746;2023-05-14T05:50:41;17.72;58.49
69546;SHT31;56766;52.260;20.746;2023-05-14T05:53:10;17.83;58.03
69546;SHT31;56766;52.260;20.746;2023-05-14T05:55:36;17.93;58.06
69546;SHT31;56766;52.260;20.746;2023-05-14T05:58:03;18.03;57.43
69546;SHT31;56766;52.260;20.746;2023-05-14T06:00:29;18.11;56.80
69546;SHT31;56766;52.260;20.746;2023-05-14T06:02:57;18.18;56.18
69546;SHT31;56766;52.260;20.746;2023-05-14T06:05:24;18.30;56.81
69546;SHT31;56766;52.260;20.746;2023-05-14T06:07:51;18.47;56.62
69546;SHT31;56766;52.260;20.746;2023-05-14T06:10:21;18.59;56.97
69546;SHT31;56766;52.260;20.746;2023-05-14T06:12:48;18.65;56.71
69546;SHT31;56766;52.260;20.746;2023-05-14T06:15:14;18.77;56.90
69546;SHT31;56766;52.260;20.746;2023-05-14T06:17:41;18.88;56.91
69546;SHT31;56766;52.260;20.746;2023-05-14T06:20:08;18.95;55.71
69546;SHT31;56766;52.260;20.746;2023-05-14T06:22:35;19.00;55.13
69546;SHT31;56766;52.260;20.746;2023-05-14T06:25:03;19.06;55.64
69546;SHT31;56766;52.260;20.746;2023-05-14T06:27:30;19.08;55.13
69546;SHT31;56766;52.260;20.746;2023-05-14T06:29:56;19.14;55.50
69546;SHT31;56766;52.260;20.746;2023-05-14T06:32:23;19.24;55.26
69546;SHT31;56766;52.260;20.746;2023-05-14T06:34:50;19.31;54.97
69546;SHT31;56766;52.260;20.746;2023-05-14T06:37:16;19.35;54.76
69546;SHT31;56766;52.260;20.746;2023-05-14T06:39:43;19.41;54.33
69546;SHT31;56766;52.260;20.746;2023-05-14T06:42:15;19.48;53.71
69546;SHT31;56766;52.260;20.746;2023-05-14T06:44:43;19.50;53.58
69546;SHT31;56766;52.260;20.746;2023-05-14T06:47:10;19.54;53.15
69546;SHT31;56766;52.260;20.746;2023-05-14T06:49:38;19.59;51.01
69546;SHT31;56766;52.260;20.746;2023-05-14T06:52:05;19.63;51.37
69546;SHT31;56766;52.260;20.746;2023-05-14T06:54:32;19.66;50.35
69546;SHT31;56766;52.260;20.746;2023-05-14T06:56:59;19.66;49.35
69546;SHT31;56766;52.260;20.746;2023-05-14T06:59:26;19.68;48.57
69546;SHT31;56766;52.260;20.746;2023-05-14T07:01:52;19.71;48.70
69546;SHT31;56766;52.260;20.746;2023-05-14T07:04:19;19.76;46.89
69546;SHT31;56766;52.260;20.746;2023-05-14T07:06:46;19.84;47.64
69546;SHT31;56766;52.260;20.746;2023-05-14T07:09:13;19.95;48.21
69546;SHT31;56766;52.260;20.746;2023-05-14T07:11:41;20.09;47.75
69546;SHT31;56766;52.260;20.746;2023-05-14T07:14:07;20.19;46.53
69546;SHT31;56766;52.260;20.746;2023-05-14T07:16:35;20.28;46.10
69546;SHT31;56766;52.260;20.746;2023-05-14T07:19:02;20.33;44.70
69546;SHT31;56766;52.260;20.746;2023-05-14T07:21:28;20.42;45.21
69546;SHT31;56766;52.260;20.746;2023-05-14T07:23:55;20.58;45.42
69546;SHT31;56766;52.260;20.746;2023-05-14T07:26:21;20.73;44.99
69546;SHT31;56766;52.260;20.746;2023-05-14T07:28:50;20.83;43.59
69546;SHT31;56766;52.260;20.746;2023-05-14T07:31:16;20.92;43.31
69546;SHT31;56766;52.260;20.746;2023-05-14T07:33:43;21.00;42.90
69546;SHT31;56766;52.260;20.746;2023-05-14T07:36:10;21.09;43.12
69546;SHT31;56766;52.260;20.746;2023-05-14T07:38:36;21.17;42.19
69546;SHT31;56766;52.260;20.746;2023-05-14T07:41:03;21.25;42.42
69546;SHT31;56766;52.260;20.746;2023-05-14T07:43:30;21.37;42.57
69546;SHT31;56766;52.260;20.746;2023-05-14T07:45:57;21.46;42.32
69546;SHT31;56766;52.260;20.746;2023-05-14T07:48:23;21.57;42.23
69546;SHT31;56766;52.260;20.746;2023-05-14T07:50:50;21.66;41.93
69546;SHT31;56766;52.260;20.746;2023-05-14T07:53:17;21.76;41.06
69546;SHT31;56766;52.260;20.746;2023-05-14T07:55:44;21.83;41.25
69546;SHT31;56766;52.260;20.746;2023-05-14T07:58:13;21.95;41.20
69546;SHT31;56766;52.260;20.746;2023-05-14T08:00:40;22.07;41.50
69546;SHT31;56766;52.260;20.746;2023-05-14T08:03:06;22.12;40.33
69546;SHT31;56766;52.260;20.746;2023-05-14T08:05:33;22.18;40.06
69546;SHT31;56766;52.260;20.746;2023-05-14T08:08:00;22.26;40.50
69546;SHT31;56766;52.260;20.746;2023-05-14T08:10:27;22.38;40.14
69546;SHT31;56766;52.260;20.746;2023-05-14T08:12:53;22.47;40.13
69546;SHT31;56766;52.260;20.746;2023-05-14T08:15:20;22.59;39.96
69546;SHT31;56766;52.260;20.746;2023-05-14T08:17:47;22.75;39.97
69546;SHT31;56766;52.260;20.746;2023-05-14T08:20:13;22.88;39.92
69546;SHT31;56766;52.260;20.746;2023-05-14T08:22:40;22.94;38.95
69546;SHT31;56766;52.260;20.746;2023-05-14T08:25:07;23.00;38.36
69546;SHT31;56766;52.260;20.746;2023-05-14T08:27:33;23.06;38.55
69546;SHT31;56766;52.260;20.746;2023-05-14T08:30:00;23.15;38.46
69546;SHT31;56766;52.260;20.746;2023-05-14T08:32:27;23.22;38.28
69546;SHT31;56766;52.260;20.746;2023-05-14T08:34:54;23.32;37.58
69546;SHT31;56766;52.260;20.746;2023-05-14T08:37:21;23.46;38.20
69546;SHT31;56766;52.260;20.746;2023-05-14T08:39:48;23.59;37.11
69546;SHT31;56766;52.260;20.746;2023-05-14T08:42:19;23.66;36.11
69546;SHT31;56766;52.260;20.746;2023-05-14T08:44:48;23.59;34.62
69546;SHT31;56766;52.260;20.746;2023-05-14T08:47:22;23.54;35.35
69546;SHT31;56766;52.260;20.746;2023-05-14T08:49:58;23.59;35.61
69546;SHT31;56766;52.260;20.746;2023-05-14T08:52:31;23.65;35.02
69546;SHT31;56766;52.260;20.746;2023-05-14T08:55:01;23.70;35.28
69546;SHT31;56766;52.260;20.746;2023-05-14T08:57:32;23.68;34.56
69546;SHT31;56766;52.260;20.746;2023-05-14T08:59:59;23.70;35.07
69546;SHT31;56766;52.260;20.746;2023-05-14T09:02:29;23.82;35.99
69546;SHT31;56766;52.260;20.746;2023-05-14T09:05:01;23.95;34.56
69546;SHT31;56766;52.260;20.746;2023-05-14T09:07:29;23.93;34.96
69546;SHT31;56766;52.260;20.746;2023-05-14T09:09:57;24.00;34.86
69546;SHT31;56766;52.260;20.746;2023-05-14T09:12:25;24.05;35.01
69546;SHT31;56766;52.260;20.746;2023-05-14T09:14:51;24.17;34.61
69546;SHT31;56766;52.260;20.746;2023-05-14T09:17:18;24.30;35.07
69546;SHT31;56766;52.260;20.746;2023-05-14T09:19:46;24.45;34.29
69546;SHT31;56766;52.260;20.746;2023-05-14T09:22:16;24.52;33.36
69546;SHT31;56766;52.260;20.746;2023-05-14T09:24:44;24.55;33.18
69546;SHT31;56766;52.260;20.746;2023-05-14T09:27:18;24.43;32.88
69546;SHT31;56766;52.260;20.746;2023-05-14T09:29:47;24.25;33.41
69546;SHT31;56766;52.260;20.746;2023-05-14T09:32:13;24.09;33.89
69546;SHT31;56766;52.260;20.746;2023-05-14T09:34:40;24.22;34.67
69546;SHT31;56766;52.260;20.746;2023-05-14T09:37:08;24.51;33.91
69546;SHT31;56766;52.260;20.746;2023-05-14T09:39:37;24.70;33.83
69546;SHT31;56766;52.260;20.746;2023-05-14T09:42:04;24.92;33.57
69546;SHT31;56766;52.260;20.746;2023-05-14T09:44:31;25.00;33.46
69546;SHT31;56766;52.260;20.746;2023-05-14T09:46:58;25.12;34.55
69546;SHT31;56766;52.260;20.746;2023-05-14T09:49:24;25.27;33.15
69546;SHT31;56766;52.260;20.746;2023-05-14T09:51:51;25.08;32.36
69546;SHT31;56766;52.260;20.746;2023-05-14T09:54:18;24.98;32.48
69546;SHT31;56766;52.260;20.746;2023-05-14T09:56:45;25.01;32.81
69546;SHT31;56766;52.260;20.746;2023-05-14T09:59:12;24.97;32.14
69546;SHT31;56766;52.260;20.746;2023-05-14T10:01:41;25.15;32.57
69546;SHT31;56766;52.260;20.746;2023-05-14T10:04:10;25.42;31.94
69546;SHT31;56766;52.260;20.746;2023-05-14T10:06:38;25.55;31.84
69546;SHT31;56766;52.260;20.746;2023-05-14T10:09:12;25.48;31.72
69546;SHT31;56766;52.260;20.746;2023-05-14T10:11:50;25.46;32.37
69546;SHT31;56766;52.260;20.746;2023-05-14T10:14:27;25.71;31.58
69546;SHT31;56766;52.260;20.746;2023-05-14T10:17:00;25.86;31.37
69546;SHT31;56766;52.260;20.746;2023-05-14T10:19:32;25.75;30.37
69546;SHT31;56766;52.260;20.746;2023-05-14T10:22:06;25.41;31.13
69546;SHT31;56766;52.260;20.746;2023-05-14T10:24:37;25.32;31.34
69546;SHT31;56766;52.260;20.746;2023-05-14T10:27:04;25.25;31.16
69546;SHT31;56766;52.260;20.746;2023-05-14T10:29:33;25.21;31.31
69546;SHT31;56766;52.260;20.746;2023-05-14T10:32:07;25.33;31.79
69546;SHT31;56766;52.260;20.746;2023-05-14T10:34:40;25.72;31.10
69546;SHT31;56766;52.260;20.746;2023-05-14T10:37:15;25.83;29.85
69546;SHT31;56766;52.260;20.746;2023-05-14T10:39:51;25.42;29.51
69546;SHT31;56766;52.260;20.746;2023-05-14T10:42:24;25.45;30.25
69546;SHT31;56766;52.260;20.746;2023-05-14T10:44:57;25.72;29.71
69546;SHT31;56766;52.260;20.746;2023-05-14T10:47:27;25.92;29.42
69546;SHT31;56766;52.260;20.746;2023-05-14T10:49:57;25.87;28.86
69546;SHT31;56766;52.260;20.746;2023-05-14T10:52:25;25.60;28.94
69546;SHT31;56766;52.260;20.746;2023-05-14T10:54:55;25.30;29.82
69546;SHT31;56766;52.260;20.746;2023-05-14T10:57:25;25.26;30.22
69546;SHT31;56766;52.260;20.746;2023-05-14T10:59:58;25.42;29.87
69546;SHT31;56766;52.260;20.746;2023-05-14T11:02:32;25.69;30.14
69546;SHT31;56766;52.260;20.746;2023-05-14T11:05:07;25.92;29.79
69546;SHT31;56766;52.260;20.746;2023-05-14T11:07:38;26.08;29.17
69546;SHT31;56766;52.260;20.746;2023-05-14T11:12:38;26.12;28.92
69546;SHT31;56766;52.260;20.746;2023-05-14T11:15:15;26.15;28.46
69546;SHT31;56766;52.260;20.746;2023-05-14T11:17:45;26.11;28.57
69546;SHT31;56766;52.260;20.746;2023-05-14T11:20:13;26.10;29.40
69546;SHT31;56766;52.260;20.746;2023-05-14T11:22:43;26.20;29.80
69546;SHT31;56766;52.260;20.746;2023-05-14T11:25:12;26.10;28.13
69546;SHT31;56766;52.260;20.746;2023-05-14T11:27:42;25.83;27.86
69546;SHT31;56766;52.260;20.746;2023-05-14T11:30:16;25.72;28.40
69546;SHT31;56766;52.260;20.746;2023-05-14T11:32:46;25.89;29.09
69546;SHT31;56766;52.260;20.746;2023-05-14T11:35:15;25.97;27.48
69546;SHT31;56766;52.260;20.746;2023-05-14T11:37:49;25.86;27.69
69546;SHT31;56766;52.260;20.746;2023-05-14T11:40:17;25.90;27.79
69546;SHT31;56766;52.260;20.746;2023-05-14T11:42:44;25.95;27.77
69546;SHT31;56766;52.260;20.746;2023-05-14T11:45:13;25.95;27.93
69546;SHT31;56766;52.260;20.746;2023-05-14T11:47:52;26.05;28.39
69546;SHT31;56766;52.260;20.746;2023-05-14T11:50:23;26.11;28.03
69546;SHT31;56766;52.260;20.746;2023-05-14T11:52:49;26.10;27.66
69546;SHT31;56766;52.260;20.746;2023-05-14T11:55:16;25.94;27.42
69546;SHT31;56766;52.260;20.746;2023-05-14T11:57:43;25.80;27.45
69546;SHT31;56766;52.260;20.746;2023-05-14T12:00:11;25.77;27.77
69546;SHT31;56766;52.260;20.746;2023-05-14T12:02:47;25.84;27.94
69546;SHT31;56766;52.260;20.746;2023-05-14T12:05:15;25.69;27.75
69546;SHT31;56766;52.260;20.746;2023-05-14T12:07:46;25.71;27.81
69546;SHT31;56766;52.260;20.746;2023-05-14T12:10:13;25.76;27.61
69546;SHT31;56766;52.260;20.746;2023-05-14T12:12:45;25.77;27.78
69546;SHT31;56766;52.260;20.746;2023-05-14T12:15:14;25.80;28.30
69546;SHT31;56766;52.260;20.746;2023-05-14T12:17:48;25.93;28.90
69546;SHT31;56766;52.260;20.746;2023-05-14T12:20:16;26.07;28.59
69546;SHT31;56766;52.260;20.746;2023-05-14T12:22:43;26.18;28.45
69546;SHT31;56766;52.260;20.746;2023-05-14T12:25:11;26.23;27.17
69546;SHT31;56766;52.260;20.746;2023-05-14T12:27:39;26.20;27.42
69546;SHT31;56766;52.260;20.746;2023-05-14T12:30:07;26.14;27.49
69546;SHT31;56766;52.260;20.746;2023-05-14T12:32:37;26.02;27.39
69546;SHT31;56766;52.260;20.746;2023-05-14T12:35:06;25.87;27.94
69546;SHT31;56766;52.260;20.746;2023-05-14T12:37:34;25.91;27.98
69546;SHT31;56766;52.260;20.746;2023-05-14T12:40:03;25.93;26.97
69546;SHT31;56766;52.260;20.746;2023-05-14T12:42:34;25.96;27.69
69546;SHT31;56766;52.260;20.746;2023-05-14T12:45:02;26.01;27.91
69546;SHT31;56766;52.260;20.746;2023-05-14T12:47:32;26.05;28.75
69546;SHT31;56766;52.260;20.746;2023-05-14T12:49:59;26.18;28.58
69546;SHT31;56766;52.260;20.746;2023-05-14T12:52:26;26.22;28.57
69546;SHT31;56766;52.260;20.746;2023-05-14T12:54:52;26.26;28.22
69546;SHT31;56766;52.260;20.746;2023-05-14T12:57:20;26.28;27.53
69546;SHT31;56766;52.260;20.746;2023-05-14T12:59:47;26.25;27.65
69546;SHT31;56766;52.260;20.746;2023-05-14T13:02:14;26.31;28.30
69546;SHT31;56766;52.260;20.746;2023-05-14T13:04:43;26.21;27.77
69546;SHT31;56766;52.260;20.746;2023-05-14T13:07:11;26.06;27.80
69546;SHT31;56766;52.260;20.746;2023-05-14T13:09:38;25.99;27.88
69546;SHT31;56766;52.260;20.746;2023-05-14T13:12:05;25.94;28.51
69546;SHT31;56766;52.260;20.746;2023-05-14T13:14:32;25.80;28.45
69546;SHT31;56766;52.260;20.746;2023-05-14T13:17:01;25.63;28.26
69546;SHT31;56766;52.260;20.746;2023-05-14T13:19:29;25.34;28.39
69546;SHT31;56766;52.260;20.746;2023-05-14T13:21:56;24.94;28.51
69546;SHT31;56766;52.260;20.746;2023-05-14T13:24:22;24.67;29.16
69546;SHT31;56766;52.260;20.746;2023-05-14T13:26:50;24.51;29.58
69546;SHT31;56766;52.260;20.746;2023-05-14T13:29:17;24.42;29.68
69546;SHT31;56766;52.260;20.746;2023-05-14T13:31:44;24.36;29.60
69546;SHT31;56766;52.260;20.746;2023-05-14T13:34:11;24.36;29.83
69546;SHT31;56766;52.260;20.746;2023-05-14T13:36:39;24.27;29.50
69546;SHT31;56766;52.260;20.746;2023-05-14T13:39:09;24.13;29.99
69546;SHT31;56766;52.260;20.746;2023-05-14T13:41:37;24.01;30.30
69546;SHT31;56766;52.260;20.746;2023-05-14T13:44:04;24.00;30.46
69546;SHT31;56766;52.260;20.746;2023-05-14T13:46:31;24.16;30.96
69546;SHT31;56766;52.260;20.746;2023-05-14T13:48:58;24.30;30.97
69546;SHT31;56766;52.260;20.746;2023-05-14T13:51:25;24.41;30.75
69546;SHT31;56766;52.260;20.746;2023-05-14T13:53:52;24.61;30.68
69546;SHT31;56766;52.260;20.746;2023-05-14T13:56:19;24.77;30.70
69546;SHT31;56766;52.260;20.746;2023-05-14T13:58:47;24.78;30.26
69546;SHT31;56766;52.260;20.746;2023-05-14T14:01:14;24.63;30.67
69546;SHT31;56766;52.260;20.746;2023-05-14T14:03:41;24.36;30.38
69546;SHT31;56766;52.260;20.746;2023-05-14T14:06:07;24.09;30.53
69546;SHT31;56766;52.260;20.746;2023-05-14T14:08:35;23.83;30.36
69546;SHT31;56766;52.260;20.746;2023-05-14T14:11:03;23.61;30.62
69546;SHT31;56766;52.260;20.746;2023-05-14T14:13:30;23.52;30.67
69546;SHT31;56766;52.260;20.746;2023-05-14T14:15:57;23.64;30.69
69546;SHT31;56766;52.260;20.746;2023-05-14T14:18:25;23.80;31.06
69546;SHT31;56766;52.260;20.746;2023-05-14T14:20:52;23.92;31.00
69546;SHT31;56766;52.260;20.746;2023-05-14T14:23:19;23.99;30.69
69546;SHT31;56766;52.260;20.746;2023-05-14T14:25:46;24.08;30.80
69546;SHT31;56766;52.260;20.746;2023-05-14T14:28:14;24.12;30.87
69546;SHT31;56766;52.260;20.746;2023-05-14T14:30:41;24.21;31.31
69546;SHT31;56766;52.260;20.746;2023-05-14T14:33:10;24.30;31.62
69546;SHT31;56766;52.260;20.746;2023-05-14T14:35:37;24.35;31.70
69546;SHT31;56766;52.260;20.746;2023-05-14T14:38:04;24.38;31.52
69546;SHT31;56766;52.260;20.746;2023-05-14T14:40:32;24.40;30.59
69546;SHT31;56766;52.260;20.746;2023-05-14T14:43:00;24.43;30.46
69546;SHT31;56766;52.260;20.746;2023-05-14T14:45:28;24.48;30.48
69546;SHT31;56766;52.260;20.746;2023-05-14T14:48:24;24.57;30.71
69546;SHT31;56766;52.260;20.746;2023-05-14T14:50:59;24.61;30.26
69546;SHT31;56766;52.260;20.746;2023-05-14T14:53:29;24.55;30.03
69546;SHT31;56766;52.260;20.746;2023-05-14T14:55:57;24.58;30.05
69546;SHT31;56766;52.260;20.746;2023-05-14T14:58:26;24.63;30.24
69546;SHT31;56766;52.260;20.746;2023-05-14T15:00:54;24.70;30.34
69546;SHT31;56766;52.260;20.746;2023-05-14T15:03:23;24.77;30.63
69546;SHT31;56766;52.260;20.746;2023-05-14T15:05:55;24.76;30.01
69546;SHT31;56766;52.260;20.746;2023-05-14T15:08:24;24.70;29.80
69546;SHT31;56766;52.260;20.746;2023-05-14T15:10:56;24.67;30.28
69546;SHT31;56766;52.260;20.746;2023-05-14T15:13:24;24.62;30.68
69546;SHT31;56766;52.260;20.746;2023-05-14T15:15:51;24.59;31.02
69546;SHT31;56766;52.260;20.746;2023-05-14T15:18:19;24.58;30.48
69546;SHT31;56766;52.260;20.746;2023-05-14T15:20:47;24.57;30.05
69546;SHT31;56766;52.260;20.746;2023-05-14T15:23:15;24.54;30.17
69546;SHT31;56766;52.260;20.746;2023-05-14T15:25:43;24.50;30.14
69546;SHT31;56766;52.260;20.746;2023-05-14T15:28:10;24.42;30.29
69546;SHT31;56766;52.260;20.746;2023-05-14T15:30:37;24.36;30.11
69546;SHT31;56766;52.260;20.746;2023-05-14T15:33:06;24.34;30.03
69546;SHT31;56766;52.260;20.746;2023-05-14T15:35:34;24.22;30.23
69546;SHT31;56766;52.260;20.746;2023-05-14T15:38:02;23.93;30.40
69546;SHT31;56766;52.260;20.746;2023-05-14T15:40:29;23.66;30.67